Aérodrome :
LOGIN :

S'inscrire | Disclaimer

   EN    FR    IT 

 










Légende :    VFR   VFR Marginal   IFR   IFR Intensif   IFR Très Intensif
Visi : 
Plafond : 
>= 8 km
>= 3000ft
5 à 8 km
1000 à 3000 ft
1500m à 5 km
500 à 1000 ft
800 à 1500m
200 à 500 ft
< 800m
< 200 ft
Symboles :   Orages  Brouillard  Fortes neiges  Fortes précipitations  Vent > 20 kt
SIGMETs :   Divers  Orages  Givrage  Turbulence  Onde Orograph.  Cendres Volcan.







- Altitude de l'aérodrome : 87 ft
- Code IATA : FSC
- Voir les cartes d'approche


LFKF - Figari

DERNIER METAR :
  • 222330Z AUTO 29013G27KT 240V330 9999 BKN032 15/09 Q1014

METARs EXPIRÉS :
  • 222300Z AUTO 29022G37KT 250V320 9999 FEW030 15/10 Q1014
  • 222230Z AUTO 30024G39KT 9999 FEW028 15/09 Q1013
  • 222200Z AUTO 30024G40KT 9999 FEW027 15/10 Q1013
  • 222130Z AUTO 30026G43KT 9999 SCT029 15/09 Q1013 NOSIG
  • 222100Z AUTO 29018G30KT 9999 BKN031 15/09 Q1013 NOSIG

TAF TAF LFKF
Valide du 22 à 15h jusqu'au 23 à 15h UTC


221400Z 2215/2315 26015KT CAVOK
BECMG 2218/2221 BKN033
TEMPO 2215/2303 26017G35KT
BECMG 2302/2305 VRB04KT CAVOK
BECMG 2309/2311 24008KT
Pas de NOTAMs connus pour ce terrain.
5 SIGMETs publiés pour la FIR Marseille (LFMM) :
 
Onde orographique forte
LFMM SIGMET 23 VALID 230000/230400 LFPW
LFMM MARSEILLE FIR/UIR SEV MTW FCST WI N4545 E00700 - N4400 E00700 - N4330 E00645 - N4400 E00530 - N4545 E00700 SFC/FL220 STNR NC=
Turbulence forte
LFMM SIGMET 22 VALID 230000/230400 LFPW
LFMM MARSEILLE FIR/UIR SEV TURB FCST WI N4045 E00430 - N4200 E00430 - N4215 E00230 - N4330 E00245 - N4400 E00300 - N4315 E00645 - N4115 E00945 - N4115 E00800 - N4100 E00800 - N4030 E00445 SFC/FL060 STNR NC=
Turbulence forte
LFMM SIGMET 21 VALID 222100/230000 LFPW
LFMM MARSEILLE FIR/UIR SEV TURB FCST WI N4130 E00430 - N4200 E00430 - N4215 E00230 - N4330 E00245 - N4345 E00630 - N4300 E00945 - N4115 E00945 - N4115 E00800 - N4100 E00800 - N4130 E00430 SFC/FL080 STNR NC=
Onde orographique forte
LFMM SIGMET 20 VALID 222100/230100 LFPW
LFMM MARSEILLE FIR/UIR SEV MTW FCST WI N4215 E00230 - N4330 E00245 - N4500 E00415 - N4430 E00515 - N4215 E00230 SFC/FL280 STNR WKN=
Onde orographique forte
LFMM SIGMET 19 VALID 222100/230000 LFPW
LFMM MARSEILLE FIR/UIR SEV MTW FCST WI N4545 E00700 - N4400 E00700 - N4330 E00630 - N4415 E00530 - N4545 E00700 SFC/FL220 STNR NC=



MET'MAP, la Météo Aéronautique d'un coup d'oeil ! - Copyright ORBIFLY Décembre 2007 - Disclaimer

ORBIFLY MET'MAP TEAM :

Programmation & Développement : Alexandra Zaïnal
Conception & Développement : Baudouin d'Aumeries
Co-Programmation & Développement : Marc-Olivier Méhu
Soutien technique & logistique : Manuel Goepfert

Contact : metmap@orbifly.com




SOURCES & CREDITS :

   NOAA